Terminal Aerodrome Forecast
Issued by NWS

Home | Current Version | Previous Version | Text Only | Print | Product List | Glossary On
Versions: 1 2 3 4 5 6 7 8 9 10 11 12 13 14 15 16 17 18 19 20
000
FTUS45 KGJT 020551
TAFRIL
TAF
KRIL 020551Z 0206/0306 00000KT P6SM VCSH BKN035 OVC060
     FM021000 VRB03KT P6SM VCSH SCT040 OVC050
     FM022200 28007KT P6SM BKN050
     FM030100 31008KT P6SM SCT050 BKN250
     FM030500 04005KT P6SM BKN250=

USA.gov is the U.S. government's official web portal to all federal, state and local government web resources and services.